sensor_id;sensor_type;location;lat;lon;timestamp;P1;durP1;ratioP1;P2;durP2;ratioP2
80411;SDS011;69749;42.684;23.360;2023-04-28T00:00:16;3.33;;;2.97;;
80411;SDS011;69749;42.684;23.360;2023-04-28T00:02:42;4.05;;;2.58;;
80411;SDS011;69749;42.684;23.360;2023-04-28T00:05:08;2.63;;;2.08;;
80411;SDS011;69749;42.684;23.360;2023-04-28T00:07:33;3.38;;;2.95;;
80411;SDS011;69749;42.684;23.360;2023-04-28T00:09:59;5.40;;;2.50;;
80411;SDS011;69749;42.684;23.360;2023-04-28T00:12:24;3.78;;;2.95;;
80411;SDS011;69749;42.684;23.360;2023-04-28T00:14:50;4.03;;;2.55;;
80411;SDS011;69749;42.684;23.360;2023-04-28T00:17:15;5.45;;;2.67;;
80411;SDS011;69749;42.684;23.360;2023-04-28T00:19:41;2.75;;;2.17;;
80411;SDS011;69749;42.684;23.360;2023-04-28T00:22:06;7.07;;;2.75;;
80411;SDS011;69749;42.684;23.360;2023-04-28T00:24:31;5.32;;;3.28;;
80411;SDS011;69749;42.684;23.360;2023-04-28T00:26:57;3.72;;;2.42;;
80411;SDS011;69749;42.684;23.360;2023-04-28T00:29:23;4.10;;;2.85;;
80411;SDS011;69749;42.684;23.360;2023-04-28T00:31:49;6.20;;;2.58;;
80411;SDS011;69749;42.684;23.360;2023-04-28T00:34:14;5.30;;;2.95;;
80411;SDS011;69749;42.684;23.360;2023-04-28T00:36:39;9.23;;;3.10;;
80411;SDS011;69749;42.684;23.360;2023-04-28T00:39:05;4.40;;;2.92;;
80411;SDS011;69749;42.684;23.360;2023-04-28T00:41:30;6.05;;;3.13;;
80411;SDS011;69749;42.684;23.360;2023-04-28T00:43:58;5.85;;;3.33;;
80411;SDS011;69749;42.684;23.360;2023-04-28T00:46:24;5.45;;;2.88;;
80411;SDS011;69749;42.684;23.360;2023-04-28T00:48:52;5.70;;;3.38;;
80411;SDS011;69749;42.684;23.360;2023-04-28T00:51:18;3.85;;;2.75;;
80411;SDS011;69749;42.684;23.360;2023-04-28T00:53:43;4.25;;;2.75;;
80411;SDS011;69749;42.684;23.360;2023-04-28T00:56:09;4.97;;;2.78;;
80411;SDS011;69749;42.684;23.360;2023-04-28T00:58:35;5.47;;;2.80;;
80411;SDS011;69749;42.684;23.360;2023-04-28T01:01:04;6.00;;;2.67;;
80411;SDS011;69749;42.684;23.360;2023-04-28T01:03:36;5.25;;;3.03;;
80411;SDS011;69749;42.684;23.360;2023-04-28T01:06:04;3.53;;;3.22;;
80411;SDS011;69749;42.684;23.360;2023-04-28T01:08:30;4.15;;;2.72;;
80411;SDS011;69749;42.684;23.360;2023-04-28T01:10:56;3.75;;;2.40;;
80411;SDS011;69749;42.684;23.360;2023-04-28T01:13:22;6.10;;;3.25;;
80411;SDS011;69749;42.684;23.360;2023-04-28T01:15:47;4.60;;;2.70;;
80411;SDS011;69749;42.684;23.360;2023-04-28T01:18:13;5.00;;;2.92;;
80411;SDS011;69749;42.684;23.360;2023-04-28T01:20:40;4.35;;;2.88;;
80411;SDS011;69749;42.684;23.360;2023-04-28T01:23:10;3.85;;;3.00;;
80411;SDS011;69749;42.684;23.360;2023-04-28T01:25:40;5.22;;;3.03;;
80411;SDS011;69749;42.684;23.360;2023-04-28T01:28:07;4.05;;;2.55;;
80411;SDS011;69749;42.684;23.360;2023-04-28T01:30:33;4.70;;;2.90;;
80411;SDS011;69749;42.684;23.360;2023-04-28T01:32:59;5.53;;;3.25;;
80411;SDS011;69749;42.684;23.360;2023-04-28T01:35:25;5.75;;;2.70;;
80411;SDS011;69749;42.684;23.360;2023-04-28T01:37:50;3.72;;;2.83;;
80411;SDS011;69749;42.684;23.360;2023-04-28T01:40:16;6.22;;;2.67;;
80411;SDS011;69749;42.684;23.360;2023-04-28T01:42:41;3.75;;;3.03;;
80411;SDS011;69749;42.684;23.360;2023-04-28T01:45:07;4.85;;;3.42;;
80411;SDS011;69749;42.684;23.360;2023-04-28T01:47:33;4.97;;;2.95;;
80411;SDS011;69749;42.684;23.360;2023-04-28T01:49:58;5.88;;;3.10;;
80411;SDS011;69749;42.684;23.360;2023-04-28T01:52:24;9.27;;;3.15;;
80411;SDS011;69749;42.684;23.360;2023-04-28T01:54:51;5.15;;;3.38;;
80411;SDS011;69749;42.684;23.360;2023-04-28T01:57:16;8.10;;;3.10;;
80411;SDS011;69749;42.684;23.360;2023-04-28T01:59:42;4.95;;;3.22;;
80411;SDS011;69749;42.684;23.360;2023-04-28T02:02:07;5.80;;;2.85;;
80411;SDS011;69749;42.684;23.360;2023-04-28T02:04:32;4.20;;;3.10;;
80411;SDS011;69749;42.684;23.360;2023-04-28T02:06:58;4.68;;;3.25;;
80411;SDS011;69749;42.684;23.360;2023-04-28T02:09:23;3.33;;;2.85;;
80411;SDS011;69749;42.684;23.360;2023-04-28T02:11:49;5.30;;;3.10;;
80411;SDS011;69749;42.684;23.360;2023-04-28T02:14:14;7.45;;;3.20;;
80411;SDS011;69749;42.684;23.360;2023-04-28T02:16:40;4.55;;;3.08;;
80411;SDS011;69749;42.684;23.360;2023-04-28T02:19:05;6.03;;;3.00;;
80411;SDS011;69749;42.684;23.360;2023-04-28T02:21:31;5.95;;;2.92;;
80411;SDS011;69749;42.684;23.360;2023-04-28T02:23:56;7.15;;;3.67;;
80411;SDS011;69749;42.684;23.360;2023-04-28T02:26:22;3.88;;;2.97;;
80411;SDS011;69749;42.684;23.360;2023-04-28T02:28:48;4.43;;;2.83;;
80411;SDS011;69749;42.684;23.360;2023-04-28T02:31:13;6.60;;;2.97;;
80411;SDS011;69749;42.684;23.360;2023-04-28T02:33:39;6.45;;;3.10;;
80411;SDS011;69749;42.684;23.360;2023-04-28T02:36:06;4.82;;;2.88;;
80411;SDS011;69749;42.684;23.360;2023-04-28T02:38:32;4.43;;;3.03;;
80411;SDS011;69749;42.684;23.360;2023-04-28T02:41:04;4.13;;;2.78;;
80411;SDS011;69749;42.684;23.360;2023-04-28T02:43:33;5.10;;;3.15;;
80411;SDS011;69749;42.684;23.360;2023-04-28T02:45:59;6.15;;;3.30;;
80411;SDS011;69749;42.684;23.360;2023-04-28T02:48:25;5.22;;;2.90;;
80411;SDS011;69749;42.684;23.360;2023-04-28T02:50:51;6.15;;;3.22;;
80411;SDS011;69749;42.684;23.360;2023-04-28T02:53:17;7.63;;;3.50;;
80411;SDS011;69749;42.684;23.360;2023-04-28T02:55:43;6.78;;;3.17;;
80411;SDS011;69749;42.684;23.360;2023-04-28T02:58:09;3.35;;;2.80;;
80411;SDS011;69749;42.684;23.360;2023-04-28T03:00:34;5.38;;;3.10;;
80411;SDS011;69749;42.684;23.360;2023-04-28T03:03:00;4.10;;;3.10;;
80411;SDS011;69749;42.684;23.360;2023-04-28T03:05:26;5.78;;;3.20;;
80411;SDS011;69749;42.684;23.360;2023-04-28T03:07:51;6.63;;;3.72;;
80411;SDS011;69749;42.684;23.360;2023-04-28T03:10:16;4.97;;;3.22;;
80411;SDS011;69749;42.684;23.360;2023-04-28T03:12:42;4.20;;;2.72;;
80411;SDS011;69749;42.684;23.360;2023-04-28T03:15:07;6.35;;;3.15;;
80411;SDS011;69749;42.684;23.360;2023-04-28T03:17:33;4.55;;;2.78;;
80411;SDS011;69749;42.684;23.360;2023-04-28T03:20:01;4.18;;;2.92;;
80411;SDS011;69749;42.684;23.360;2023-04-28T03:22:27;5.90;;;2.92;;
80411;SDS011;69749;42.684;23.360;2023-04-28T03:24:52;6.90;;;2.65;;
80411;SDS011;69749;42.684;23.360;2023-04-28T03:27:17;6.18;;;3.45;;
80411;SDS011;69749;42.684;23.360;2023-04-28T03:29:43;8.40;;;3.95;;
80411;SDS011;69749;42.684;23.360;2023-04-28T03:32:08;6.18;;;3.25;;
80411;SDS011;69749;42.684;23.360;2023-04-28T03:34:34;7.95;;;4.10;;
80411;SDS011;69749;42.684;23.360;2023-04-28T03:36:59;6.60;;;4.18;;
80411;SDS011;69749;42.684;23.360;2023-04-28T03:39:25;4.55;;;3.20;;
80411;SDS011;69749;42.684;23.360;2023-04-28T03:41:50;3.95;;;2.92;;
80411;SDS011;69749;42.684;23.360;2023-04-28T03:44:16;4.03;;;3.40;;
80411;SDS011;69749;42.684;23.360;2023-04-28T03:46:41;4.32;;;2.97;;
80411;SDS011;69749;42.684;23.360;2023-04-28T03:49:07;5.82;;;3.20;;
80411;SDS011;69749;42.684;23.360;2023-04-28T03:51:32;5.60;;;3.13;;
80411;SDS011;69749;42.684;23.360;2023-04-28T03:53:58;6.30;;;3.67;;
80411;SDS011;69749;42.684;23.360;2023-04-28T03:56:23;7.13;;;3.70;;
80411;SDS011;69749;42.684;23.360;2023-04-28T03:58:49;6.60;;;3.65;;
80411;SDS011;69749;42.684;23.360;2023-04-28T04:01:14;5.80;;;3.10;;
80411;SDS011;69749;42.684;23.360;2023-04-28T04:03:40;4.18;;;2.83;;
80411;SDS011;69749;42.684;23.360;2023-04-28T04:06:05;5.72;;;3.40;;
80411;SDS011;69749;42.684;23.360;2023-04-28T04:08:31;4.53;;;3.80;;
80411;SDS011;69749;42.684;23.360;2023-04-28T04:10:57;4.82;;;3.00;;
80411;SDS011;69749;42.684;23.360;2023-04-28T04:13:22;9.27;;;3.63;;
80411;SDS011;69749;42.684;23.360;2023-04-28T04:15:48;4.03;;;3.22;;
80411;SDS011;69749;42.684;23.360;2023-04-28T04:18:14;4.35;;;3.22;;
80411;SDS011;69749;42.684;23.360;2023-04-28T04:20:40;6.65;;;3.63;;
80411;SDS011;69749;42.684;23.360;2023-04-28T04:23:05;6.18;;;3.72;;
80411;SDS011;69749;42.684;23.360;2023-04-28T04:25:31;8.85;;;3.78;;
80411;SDS011;69749;42.684;23.360;2023-04-28T04:27:57;7.68;;;3.40;;
80411;SDS011;69749;42.684;23.360;2023-04-28T04:30:23;7.88;;;3.78;;
80411;SDS011;69749;42.684;23.360;2023-04-28T04:32:49;7.63;;;3.65;;
80411;SDS011;69749;42.684;23.360;2023-04-28T04:35:14;5.63;;;3.40;;
80411;SDS011;69749;42.684;23.360;2023-04-28T04:37:40;5.60;;;3.10;;
80411;SDS011;69749;42.684;23.360;2023-04-28T04:40:05;4.78;;;3.20;;
80411;SDS011;69749;42.684;23.360;2023-04-28T04:42:31;11.30;;;3.15;;
80411;SDS011;69749;42.684;23.360;2023-04-28T04:44:57;8.73;;;3.40;;
80411;SDS011;69749;42.684;23.360;2023-04-28T04:47:22;5.68;;;3.70;;
80411;SDS011;69749;42.684;23.360;2023-04-28T04:49:48;7.57;;;3.65;;
80411;SDS011;69749;42.684;23.360;2023-04-28T04:52:16;8.52;;;4.53;;
80411;SDS011;69749;42.684;23.360;2023-04-28T04:54:41;6.38;;;3.83;;
80411;SDS011;69749;42.684;23.360;2023-04-28T04:57:07;7.50;;;3.80;;
80411;SDS011;69749;42.684;23.360;2023-04-28T04:59:32;4.50;;;3.85;;
80411;SDS011;69749;42.684;23.360;2023-04-28T05:01:58;6.63;;;3.58;;
80411;SDS011;69749;42.684;23.360;2023-04-28T05:04:23;6.78;;;3.85;;
80411;SDS011;69749;42.684;23.360;2023-04-28T05:06:49;5.45;;;3.22;;
80411;SDS011;69749;42.684;23.360;2023-04-28T05:09:14;4.43;;;3.40;;
80411;SDS011;69749;42.684;23.360;2023-04-28T05:11:39;5.97;;;3.50;;
80411;SDS011;69749;42.684;23.360;2023-04-28T05:14:05;5.60;;;3.53;;
80411;SDS011;69749;42.684;23.360;2023-04-28T05:16:30;10.30;;;3.88;;
80411;SDS011;69749;42.684;23.360;2023-04-28T05:18:56;5.65;;;3.30;;
80411;SDS011;69749;42.684;23.360;2023-04-28T05:21:21;4.35;;;3.50;;
80411;SDS011;69749;42.684;23.360;2023-04-28T05:23:47;5.10;;;3.65;;
80411;SDS011;69749;42.684;23.360;2023-04-28T05:26:12;4.55;;;3.03;;
80411;SDS011;69749;42.684;23.360;2023-04-28T05:28:38;9.70;;;3.67;;
80411;SDS011;69749;42.684;23.360;2023-04-28T05:31:05;4.75;;;3.53;;
80411;SDS011;69749;42.684;23.360;2023-04-28T05:33:30;5.25;;;3.35;;
80411;SDS011;69749;42.684;23.360;2023-04-28T05:35:56;6.13;;;3.42;;
80411;SDS011;69749;42.684;23.360;2023-04-28T05:38:21;4.72;;;3.42;;
80411;SDS011;69749;42.684;23.360;2023-04-28T05:40:47;11.85;;;4.63;;
80411;SDS011;69749;42.684;23.360;2023-04-28T05:43:13;5.05;;;3.15;;
80411;SDS011;69749;42.684;23.360;2023-04-28T05:45:38;8.80;;;3.42;;
80411;SDS011;69749;42.684;23.360;2023-04-28T05:48:04;6.35;;;3.03;;
80411;SDS011;69749;42.684;23.360;2023-04-28T05:50:30;7.97;;;3.80;;
80411;SDS011;69749;42.684;23.360;2023-04-28T05:52:55;6.05;;;3.15;;
80411;SDS011;69749;42.684;23.360;2023-04-28T05:55:21;5.28;;;3.38;;
80411;SDS011;69749;42.684;23.360;2023-04-28T05:57:46;7.13;;;3.42;;
80411;SDS011;69749;42.684;23.360;2023-04-28T06:00:13;3.60;;;2.85;;
80411;SDS011;69749;42.684;23.360;2023-04-28T06:02:38;6.30;;;2.90;;
80411;SDS011;69749;42.684;23.360;2023-04-28T06:05:04;6.45;;;3.55;;
80411;SDS011;69749;42.684;23.360;2023-04-28T06:07:31;4.65;;;3.03;;
80411;SDS011;69749;42.684;23.360;2023-04-28T06:09:56;6.40;;;3.28;;
80411;SDS011;69749;42.684;23.360;2023-04-28T06:12:22;8.82;;;3.17;;
80411;SDS011;69749;42.684;23.360;2023-04-28T06:14:47;5.43;;;3.38;;
80411;SDS011;69749;42.684;23.360;2023-04-28T06:17:13;6.13;;;3.08;;
80411;SDS011;69749;42.684;23.360;2023-04-28T06:19:38;7.25;;;3.00;;
80411;SDS011;69749;42.684;23.360;2023-04-28T06:22:04;3.58;;;2.80;;
80411;SDS011;69749;42.684;23.360;2023-04-28T06:24:29;3.58;;;2.80;;
80411;SDS011;69749;42.684;23.360;2023-04-28T06:26:54;5.78;;;3.00;;
80411;SDS011;69749;42.684;23.360;2023-04-28T06:29:20;4.82;;;2.92;;
80411;SDS011;69749;42.684;23.360;2023-04-28T06:31:47;5.78;;;2.80;;
80411;SDS011;69749;42.684;23.360;2023-04-28T06:34:13;6.93;;;3.45;;
80411;SDS011;69749;42.684;23.360;2023-04-28T06:36:39;10.20;;;4.45;;
80411;SDS011;69749;42.684;23.360;2023-04-28T06:39:04;5.07;;;3.20;;
80411;SDS011;69749;42.684;23.360;2023-04-28T06:41:30;5.38;;;3.13;;
80411;SDS011;69749;42.684;23.360;2023-04-28T06:43:55;3.95;;;3.05;;
80411;SDS011;69749;42.684;23.360;2023-04-28T06:46:21;8.38;;;3.33;;
80411;SDS011;69749;42.684;23.360;2023-04-28T06:48:47;5.20;;;3.45;;
80411;SDS011;69749;42.684;23.360;2023-04-28T06:51:13;3.85;;;2.75;;
80411;SDS011;69749;42.684;23.360;2023-04-28T06:53:39;7.50;;;4.00;;
80411;SDS011;69749;42.684;23.360;2023-04-28T06:56:04;7.03;;;3.13;;
80411;SDS011;69749;42.684;23.360;2023-04-28T06:58:30;7.28;;;3.50;;
80411;SDS011;69749;42.684;23.360;2023-04-28T07:00:56;6.88;;;3.35;;
80411;SDS011;69749;42.684;23.360;2023-04-28T07:03:21;12.52;;;3.67;;
80411;SDS011;69749;42.684;23.360;2023-04-28T07:05:46;5.82;;;2.90;;
80411;SDS011;69749;42.684;23.360;2023-04-28T07:08:12;5.85;;;2.90;;
80411;SDS011;69749;42.684;23.360;2023-04-28T07:10:37;4.28;;;2.72;;
80411;SDS011;69749;42.684;23.360;2023-04-28T07:13:03;3.72;;;3.42;;
80411;SDS011;69749;42.684;23.360;2023-04-28T07:15:28;7.40;;;4.05;;
80411;SDS011;69749;42.684;23.360;2023-04-28T07:17:54;7.65;;;3.25;;
80411;SDS011;69749;42.684;23.360;2023-04-28T07:20:19;6.53;;;3.40;;
80411;SDS011;69749;42.684;23.360;2023-04-28T07:22:45;4.55;;;2.92;;
80411;SDS011;69749;42.684;23.360;2023-04-28T07:25:10;9.48;;;4.18;;
80411;SDS011;69749;42.684;23.360;2023-04-28T07:27:35;7.53;;;3.67;;
80411;SDS011;69749;42.684;23.360;2023-04-28T07:30:01;8.57;;;3.42;;
80411;SDS011;69749;42.684;23.360;2023-04-28T07:32:26;5.15;;;3.17;;
80411;SDS011;69749;42.684;23.360;2023-04-28T07:34:52;5.78;;;3.00;;
80411;SDS011;69749;42.684;23.360;2023-04-28T07:37:17;3.92;;;3.05;;
80411;SDS011;69749;42.684;23.360;2023-04-28T07:39:43;8.38;;;4.05;;
80411;SDS011;69749;42.684;23.360;2023-04-28T07:42:08;15.65;;;4.80;;
80411;SDS011;69749;42.684;23.360;2023-04-28T07:44:34;5.03;;;3.35;;
80411;SDS011;69749;42.684;23.360;2023-04-28T07:47:00;10.35;;;3.50;;
80411;SDS011;69749;42.684;23.360;2023-04-28T07:49:30;5.47;;;2.90;;
80411;SDS011;69749;42.684;23.360;2023-04-28T07:51:55;5.78;;;3.42;;
80411;SDS011;69749;42.684;23.360;2023-04-28T07:54:21;4.80;;;3.00;;
80411;SDS011;69749;42.684;23.360;2023-04-28T07:56:47;7.70;;;3.53;;
80411;SDS011;69749;42.684;23.360;2023-04-28T07:59:13;6.38;;;3.55;;
80411;SDS011;69749;42.684;23.360;2023-04-28T08:01:38;4.60;;;2.95;;
80411;SDS011;69749;42.684;23.360;2023-04-28T08:04:04;8.60;;;4.00;;
80411;SDS011;69749;42.684;23.360;2023-04-28T08:06:29;6.80;;;4.25;;
80411;SDS011;69749;42.684;23.360;2023-04-28T08:08:55;6.97;;;2.92;;
80411;SDS011;69749;42.684;23.360;2023-04-28T08:11:20;9.25;;;2.60;;
80411;SDS011;69749;42.684;23.360;2023-04-28T08:13:46;6.40;;;3.08;;
80411;SDS011;69749;42.684;23.360;2023-04-28T08:16:13;4.00;;;2.53;;
80411;SDS011;69749;42.684;23.360;2023-04-28T08:18:38;5.68;;;3.08;;
80411;SDS011;69749;42.684;23.360;2023-04-28T08:21:04;8.77;;;3.63;;
80411;SDS011;69749;42.684;23.360;2023-04-28T08:23:30;6.25;;;2.80;;
80411;SDS011;69749;42.684;23.360;2023-04-28T08:25:56;6.55;;;2.88;;
80411;SDS011;69749;42.684;23.360;2023-04-28T08:28:22;12.55;;;3.67;;
80411;SDS011;69749;42.684;23.360;2023-04-28T08:30:47;6.93;;;3.00;;
80411;SDS011;69749;42.684;23.360;2023-04-28T08:33:13;5.75;;;3.20;;
80411;SDS011;69749;42.684;23.360;2023-04-28T08:35:38;7.03;;;2.53;;
80411;SDS011;69749;42.684;23.360;2023-04-28T08:38:05;4.40;;;2.50;;
80411;SDS011;69749;42.684;23.360;2023-04-28T08:40:31;5.07;;;2.50;;
80411;SDS011;69749;42.684;23.360;2023-04-28T08:42:57;6.65;;;2.70;;
80411;SDS011;69749;42.684;23.360;2023-04-28T08:45:23;4.40;;;2.58;;
80411;SDS011;69749;42.684;23.360;2023-04-28T08:47:50;10.43;;;2.80;;
80411;SDS011;69749;42.684;23.360;2023-04-28T08:50:18;4.95;;;2.70;;
80411;SDS011;69749;42.684;23.360;2023-04-28T08:52:46;7.22;;;2.88;;
80411;SDS011;69749;42.684;23.360;2023-04-28T08:55:12;4.25;;;2.25;;
80411;SDS011;69749;42.684;23.360;2023-04-28T08:57:44;5.82;;;3.17;;
80411;SDS011;69749;42.684;23.360;2023-04-28T09:00:13;3.80;;;2.55;;
80411;SDS011;69749;42.684;23.360;2023-04-28T09:02:38;6.10;;;3.05;;
80411;SDS011;69749;42.684;23.360;2023-04-28T09:05:09;3.33;;;2.80;;
80411;SDS011;69749;42.684;23.360;2023-04-28T09:07:35;3.90;;;2.42;;
80411;SDS011;69749;42.684;23.360;2023-04-28T09:10:20;4.80;;;2.90;;
80411;SDS011;69749;42.684;23.360;2023-04-28T09:12:47;3.30;;;2.30;;
80411;SDS011;69749;42.684;23.360;2023-04-28T09:17:58;5.60;;;2.95;;
80411;SDS011;69749;42.684;23.360;2023-04-28T09:20:25;3.95;;;2.47;;
80411;SDS011;69749;42.684;23.360;2023-04-28T09:22:52;4.13;;;2.50;;
80411;SDS011;69749;42.684;23.360;2023-04-28T09:25:18;4.43;;;2.65;;
80411;SDS011;69749;42.684;23.360;2023-04-28T09:27:48;5.63;;;2.85;;
80411;SDS011;69749;42.684;23.360;2023-04-28T09:30:14;6.53;;;2.80;;
80411;SDS011;69749;42.684;23.360;2023-04-28T09:32:40;5.25;;;2.63;;
80411;SDS011;69749;42.684;23.360;2023-04-28T09:35:06;6.13;;;2.33;;
80411;SDS011;69749;42.684;23.360;2023-04-28T09:37:32;7.80;;;3.05;;
80411;SDS011;69749;42.684;23.360;2023-04-28T09:40:02;4.88;;;2.22;;
80411;SDS011;69749;42.684;23.360;2023-04-28T09:42:33;5.88;;;2.55;;
80411;SDS011;69749;42.684;23.360;2023-04-28T09:45:06;5.60;;;2.80;;
80411;SDS011;69749;42.684;23.360;2023-04-28T09:47:33;7.25;;;2.83;;
80411;SDS011;69749;42.684;23.360;2023-04-28T09:50:04;5.68;;;2.70;;
80411;SDS011;69749;42.684;23.360;2023-04-28T09:52:33;4.32;;;2.35;;
80411;SDS011;69749;42.684;23.360;2023-04-28T09:55:00;4.90;;;2.38;;
80411;SDS011;69749;42.684;23.360;2023-04-28T09:57:29;3.40;;;2.08;;
80411;SDS011;69749;42.684;23.360;2023-04-28T09:59:56;3.97;;;2.90;;
80411;SDS011;69749;42.684;23.360;2023-04-28T10:02:22;5.00;;;2.00;;
80411;SDS011;69749;42.684;23.360;2023-04-28T10:04:49;5.07;;;2.25;;
80411;SDS011;69749;42.684;23.360;2023-04-28T10:07:15;6.97;;;2.50;;
80411;SDS011;69749;42.684;23.360;2023-04-28T10:09:48;2.63;;;2.08;;
80411;SDS011;69749;42.684;23.360;2023-04-28T10:12:18;6.63;;;3.25;;
80411;SDS011;69749;42.684;23.360;2023-04-28T10:14:46;4.72;;;2.13;;
80411;SDS011;69749;42.684;23.360;2023-04-28T10:17:14;3.30;;;2.22;;
80411;SDS011;69749;42.684;23.360;2023-04-28T10:19:42;3.53;;;2.17;;
80411;SDS011;69749;42.684;23.360;2023-04-28T10:22:13;6.70;;;2.35;;
80411;SDS011;69749;42.684;23.360;2023-04-28T10:27:46;3.83;;;2.30;;
80411;SDS011;69749;42.684;23.360;2023-04-28T10:30:13;3.78;;;1.77;;
80411;SDS011;69749;42.684;23.360;2023-04-28T10:32:41;9.15;;;3.05;;
80411;SDS011;69749;42.684;23.360;2023-04-28T10:43:01;3.53;;;1.55;;
80411;SDS011;69749;42.684;23.360;2023-04-28T10:56:10;5.22;;;2.00;;
80411;SDS011;69749;42.684;23.360;2023-04-28T10:58:35;2.88;;;1.95;;
80411;SDS011;69749;42.684;23.360;2023-04-28T11:08:54;2.72;;;2.00;;
80411;SDS011;69749;42.684;23.360;2023-04-28T11:11:25;4.55;;;2.22;;
80411;SDS011;69749;42.684;23.360;2023-04-28T11:13:52;12.25;;;2.78;;
80411;SDS011;69749;42.684;23.360;2023-04-28T11:16:20;5.50;;;2.30;;
80411;SDS011;69749;42.684;23.360;2023-04-28T11:18:48;2.20;;;2.00;;
80411;SDS011;69749;42.684;23.360;2023-04-28T11:21:18;4.63;;;2.08;;
80411;SDS011;69749;42.684;23.360;2023-04-28T11:23:44;5.75;;;1.98;;
80411;SDS011;69749;42.684;23.360;2023-04-28T11:26:10;4.07;;;2.30;;
80411;SDS011;69749;42.684;23.360;2023-04-28T11:28:36;6.22;;;2.00;;
80411;SDS011;69749;42.684;23.360;2023-04-28T11:31:14;5.63;;;3.17;;
80411;SDS011;69749;42.684;23.360;2023-04-28T11:33:46;3.10;;;1.52;;
80411;SDS011;69749;42.684;23.360;2023-04-28T11:36:29;5.93;;;1.70;;
80411;SDS011;69749;42.684;23.360;2023-04-28T11:39:00;2.03;;;1.60;;
80411;SDS011;69749;42.684;23.360;2023-04-28T11:41:29;4.88;;;2.47;;
80411;SDS011;69749;42.684;23.360;2023-04-28T11:43:56;3.30;;;1.80;;
80411;SDS011;69749;42.684;23.360;2023-04-28T11:46:22;4.97;;;1.70;;
80411;SDS011;69749;42.684;23.360;2023-04-28T11:51:31;4.15;;;2.00;;
80411;SDS011;69749;42.684;23.360;2023-04-28T11:53:57;3.00;;;1.83;;
80411;SDS011;69749;42.684;23.360;2023-04-28T11:56:24;6.07;;;2.72;;
80411;SDS011;69749;42.684;23.360;2023-04-28T11:59:03;3.75;;;2.65;;
80411;SDS011;69749;42.684;23.360;2023-04-28T12:01:55;2.92;;;1.70;;
80411;SDS011;69749;42.684;23.360;2023-04-28T12:04:30;3.72;;;1.83;;
80411;SDS011;69749;42.684;23.360;2023-04-28T12:07:00;4.43;;;2.38;;
80411;SDS011;69749;42.684;23.360;2023-04-28T12:09:34;3.05;;;2.20;;
80411;SDS011;69749;42.684;23.360;2023-04-28T12:12:01;2.40;;;2.00;;
80411;SDS011;69749;42.684;23.360;2023-04-28T12:19:57;4.55;;;1.92;;
80411;SDS011;69749;42.684;23.360;2023-04-28T12:22:24;3.50;;;2.22;;
80411;SDS011;69749;42.684;23.360;2023-04-28T12:25:03;3.40;;;2.38;;
80411;SDS011;69749;42.684;23.360;2023-04-28T12:27:35;4.18;;;2.20;;
80411;SDS011;69749;42.684;23.360;2023-04-28T12:32:46;5.32;;;1.88;;
80411;SDS011;69749;42.684;23.360;2023-04-28T12:35:11;2.35;;;1.58;;
80411;SDS011;69749;42.684;23.360;2023-04-28T12:37:36;3.53;;;2.05;;
80411;SDS011;69749;42.684;23.360;2023-04-28T12:40:05;3.05;;;1.85;;
80411;SDS011;69749;42.684;23.360;2023-04-28T12:42:32;3.10;;;2.00;;
80411;SDS011;69749;42.684;23.360;2023-04-28T12:44:58;5.78;;;2.00;;
80411;SDS011;69749;42.684;23.360;2023-04-28T12:47:23;6.60;;;2.20;;
80411;SDS011;69749;42.684;23.360;2023-04-28T12:49:49;4.82;;;2.30;;
80411;SDS011;69749;42.684;23.360;2023-04-28T12:52:17;6.40;;;2.20;;
80411;SDS011;69749;42.684;23.360;2023-04-28T12:54:43;3.63;;;2.10;;
80411;SDS011;69749;42.684;23.360;2023-04-28T12:57:14;2.85;;;2.30;;
80411;SDS011;69749;42.684;23.360;2023-04-28T12:59:41;10.77;;;2.10;;
80411;SDS011;69749;42.684;23.360;2023-04-28T13:02:07;3.42;;;1.85;;
80411;SDS011;69749;42.684;23.360;2023-04-28T13:04:32;6.60;;;2.13;;
80411;SDS011;69749;42.684;23.360;2023-04-28T13:06:57;3.50;;;1.90;;
80411;SDS011;69749;42.684;23.360;2023-04-28T13:09:23;3.97;;;2.10;;
80411;SDS011;69749;42.684;23.360;2023-04-28T13:11:49;3.85;;;2.25;;
80411;SDS011;69749;42.684;23.360;2023-04-28T13:14:17;3.67;;;1.70;;
80411;SDS011;69749;42.684;23.360;2023-04-28T13:16:43;4.82;;;2.20;;
80411;SDS011;69749;42.684;23.360;2023-04-28T13:19:08;2.33;;;1.85;;
80411;SDS011;69749;42.684;23.360;2023-04-28T13:21:37;4.15;;;2.03;;
80411;SDS011;69749;42.684;23.360;2023-04-28T13:24:03;3.53;;;1.85;;
80411;SDS011;69749;42.684;23.360;2023-04-28T13:26:29;3.13;;;2.50;;
80411;SDS011;69749;42.684;23.360;2023-04-28T13:28:54;3.85;;;2.42;;
80411;SDS011;69749;42.684;23.360;2023-04-28T13:31:20;4.47;;;1.80;;
80411;SDS011;69749;42.684;23.360;2023-04-28T13:33:45;5.60;;;2.65;;
80411;SDS011;69749;42.684;23.360;2023-04-28T13:36:14;4.30;;;1.98;;
80411;SDS011;69749;42.684;23.360;2023-04-28T13:38:40;3.70;;;2.10;;
80411;SDS011;69749;42.684;23.360;2023-04-28T13:43:33;2.33;;;1.75;;
80411;SDS011;69749;42.684;23.360;2023-04-28T13:46:01;4.30;;;1.85;;
80411;SDS011;69749;42.684;23.360;2023-04-28T13:48:32;5.75;;;2.10;;
80411;SDS011;69749;42.684;23.360;2023-04-28T13:50:58;6.30;;;2.38;;
80411;SDS011;69749;42.684;23.360;2023-04-28T13:53:23;3.45;;;2.05;;
80411;SDS011;69749;42.684;23.360;2023-04-28T13:55:49;5.32;;;1.95;;
80411;SDS011;69749;42.684;23.360;2023-04-28T13:58:17;3.15;;;1.88;;
80411;SDS011;69749;42.684;23.360;2023-04-28T14:00:43;4.97;;;2.40;;
80411;SDS011;69749;42.684;23.360;2023-04-28T14:03:09;4.95;;;2.33;;
80411;SDS011;69749;42.684;23.360;2023-04-28T14:05:35;4.00;;;2.40;;
80411;SDS011;69749;42.684;23.360;2023-04-28T14:08:00;4.32;;;2.40;;
80411;SDS011;69749;42.684;23.360;2023-04-28T14:10:27;6.55;;;2.28;;
80411;SDS011;69749;42.684;23.360;2023-04-28T14:12:54;2.00;;;1.83;;
80411;SDS011;69749;42.684;23.360;2023-04-28T14:15:20;3.72;;;1.88;;
80411;SDS011;69749;42.684;23.360;2023-04-28T14:17:46;4.68;;;2.45;;
80411;SDS011;69749;42.684;23.360;2023-04-28T14:20:12;3.67;;;1.90;;
80411;SDS011;69749;42.684;23.360;2023-04-28T14:22:38;3.63;;;2.03;;
80411;SDS011;69749;42.684;23.360;2023-04-28T14:25:04;14.23;;;3.05;;
80411;SDS011;69749;42.684;23.360;2023-04-28T14:27:30;7.57;;;2.08;;
80411;SDS011;69749;42.684;23.360;2023-04-28T14:29:57;4.95;;;2.17;;
80411;SDS011;69749;42.684;23.360;2023-04-28T14:32:22;4.57;;;2.15;;
80411;SDS011;69749;42.684;23.360;2023-04-28T14:34:48;4.40;;;2.00;;
80411;SDS011;69749;42.684;23.360;2023-04-28T14:37:14;3.55;;;2.28;;
80411;SDS011;69749;42.684;23.360;2023-04-28T14:39:40;5.03;;;2.50;;
80411;SDS011;69749;42.684;23.360;2023-04-28T14:42:06;3.50;;;2.33;;
80411;SDS011;69749;42.684;23.360;2023-04-28T14:44:32;4.60;;;2.17;;
80411;SDS011;69749;42.684;23.360;2023-04-28T14:46:58;4.40;;;2.17;;
80411;SDS011;69749;42.684;23.360;2023-04-28T14:49:24;3.72;;;2.03;;
80411;SDS011;69749;42.684;23.360;2023-04-28T14:51:51;5.93;;;2.40;;
80411;SDS011;69749;42.684;23.360;2023-04-28T14:54:17;6.47;;;2.13;;
80411;SDS011;69749;42.684;23.360;2023-04-28T14:56:42;6.30;;;2.40;;
80411;SDS011;69749;42.684;23.360;2023-04-28T14:59:08;5.70;;;2.28;;
80411;SDS011;69749;42.684;23.360;2023-04-28T15:01:34;5.78;;;2.50;;
80411;SDS011;69749;42.684;23.360;2023-04-28T15:03:59;2.92;;;1.90;;
80411;SDS011;69749;42.684;23.360;2023-04-28T15:06:25;5.43;;;2.50;;
80411;SDS011;69749;42.684;23.360;2023-04-28T15:08:50;6.43;;;2.17;;
80411;SDS011;69749;42.684;23.360;2023-04-28T15:11:16;5.22;;;2.20;;
80411;SDS011;69749;42.684;23.360;2023-04-28T15:13:41;4.45;;;2.25;;